createdAt,value
2018-06-12T00:00:33.051Z,12.87
2018-06-12T00:03:01.784Z,11.80
2018-06-12T00:05:30.390Z,11.43
2018-06-12T00:07:59.219Z,10.73
2018-06-12T00:10:28.190Z,11.03
2018-06-12T00:12:56.897Z,11.70
2018-06-12T00:15:25.714Z,10.60
2018-06-12T00:17:54.668Z,11.00
2018-06-12T00:20:23.381Z,10.03
2018-06-12T00:22:51.990Z,10.97
2018-06-12T00:25:20.839Z,10.40
2018-06-12T00:27:49.566Z,11.27
2018-06-12T00:30:18.146Z,11.67
2018-06-12T00:32:46.970Z,12.20
2018-06-12T00:35:15.702Z,13.63
2018-06-12T00:37:44.518Z,12.30
2018-06-12T00:40:13.471Z,12.50
2018-06-12T00:42:42.194Z,12.20
2018-06-12T00:45:10.794Z,11.77
2018-06-12T00:47:39.622Z,11.90
2018-06-12T00:50:08.346Z,12.30
2018-06-12T00:52:36.937Z,12.87
2018-06-12T00:55:05.774Z,13.87
2018-06-12T00:57:34.506Z,12.27
2018-06-12T01:00:03.110Z,12.33
2018-06-12T01:02:31.944Z,14.00
2018-06-12T01:05:00.904Z,14.30
2018-06-12T01:07:29.841Z,14.33
2018-06-12T01:09:58.568Z,14.90
2018-06-12T01:12:27.163Z,13.40
2018-06-12T01:14:55.763Z,14.17
2018-06-12T01:17:24.343Z,14.40
2018-06-12T01:19:53.161Z,13.03
2018-06-12T01:22:21.877Z,14.40
2018-06-12T01:24:50.687Z,13.73
2018-06-12T01:27:19.402Z,14.40
2018-06-12T01:29:48.018Z,15.03
2018-06-12T01:32:16.831Z,15.33
2018-06-12T01:34:45.764Z,13.70
2018-06-12T01:37:14.495Z,14.03
2018-06-12T01:39:45.698Z,13.97
2018-06-12T01:42:14.647Z,16.10
2018-06-12T01:44:43.373Z,15.43
2018-06-12T01:47:12.238Z,15.13
2018-06-12T01:49:40.945Z,15.50
2018-06-12T01:52:09.787Z,15.90
2018-06-12T01:54:38.718Z,16.70
2018-06-12T01:57:07.431Z,18.90
2018-06-12T01:59:36.250Z,16.00
2018-06-12T02:02:05.234Z,16.67
2018-06-12T02:04:33.941Z,15.70
2018-06-12T02:07:02.775Z,17.57
2018-06-12T02:09:31.722Z,18.20
2018-06-12T02:12:00.691Z,17.47
2018-06-12T02:14:29.654Z,17.97
2018-06-12T02:16:58.417Z,16.80
2018-06-12T02:19:27.218Z,16.83
2018-06-12T02:21:56.175Z,18.53
2018-06-12T02:24:25.107Z,18.07
2018-06-12T02:26:53.820Z,19.47
2018-06-12T02:29:22.414Z,19.37
2018-06-12T02:31:51.014Z,19.70
2018-06-12T02:34:19.842Z,19.47
2018-06-12T02:36:48.570Z,18.80
2018-06-12T02:39:17.224Z,18.17
2018-06-12T02:41:45.825Z,19.73
2018-06-12T02:44:14.655Z,19.30
2018-06-12T02:46:43.358Z,19.57
2018-06-12T02:49:11.944Z,17.60
2018-06-12T02:51:40.766Z,19.23
2018-06-12T02:54:09.493Z,20.23
2018-06-12T02:56:38.085Z,19.50
2018-06-12T02:59:06.902Z,18.87
2018-06-12T03:01:35.857Z,19.90
2018-06-12T03:04:04.571Z,19.63
2018-06-12T03:06:33.398Z,20.50
2018-06-12T03:09:02.123Z,21.30
2018-06-12T03:11:30.730Z,19.70
2018-06-12T03:13:59.331Z,22.30
2018-06-12T03:16:28.162Z,20.40
2018-06-12T03:18:56.880Z,21.47
2018-06-12T03:21:25.707Z,22.50
2018-06-12T03:23:54.433Z,21.33
2018-06-12T03:26:23.006Z,22.83
2018-06-12T03:28:51.595Z,22.60
2018-06-12T03:31:20.480Z,22.40
2018-06-12T03:33:49.446Z,23.07
2018-06-12T03:36:18.399Z,22.00
2018-06-12T03:38:47.349Z,22.63
2018-06-12T03:41:16.072Z,25.87
2018-06-12T03:43:44.902Z,26.60
2018-06-12T03:46:13.862Z,24.30
2018-06-12T03:48:43.429Z,27.00
2018-06-12T03:51:12.022Z,21.70
2018-06-12T03:53:40.604Z,21.73
2018-06-12T03:56:09.430Z,19.03
2018-06-12T03:58:38.379Z,23.03
2018-06-12T04:01:07.108Z,21.90
2018-06-12T04:03:35.709Z,22.67
2018-06-12T04:06:04.361Z,24.20
2018-06-12T04:08:32.938Z,23.40
2018-06-12T04:11:01.542Z,22.13
2018-06-12T04:13:30.353Z,22.40
2018-06-12T04:15:59.298Z,23.60
2018-06-12T04:18:28.022Z,22.53
2018-06-12T04:20:56.854Z,22.30
2018-06-12T04:23:25.566Z,24.27
2018-06-12T04:25:54.170Z,25.90
2018-06-12T04:28:22.979Z,23.30
2018-06-12T04:30:51.911Z,26.70
2018-06-12T04:33:20.682Z,25.73
2018-06-12T04:35:49.503Z,26.30
2018-06-12T04:38:18.202Z,27.60
2018-06-12T04:40:46.806Z,30.50
2018-06-12T04:43:15.710Z,27.83
2018-06-12T04:45:44.627Z,28.17
2018-06-12T04:48:13.350Z,29.40
2018-06-12T04:50:42.182Z,28.80
2018-06-12T04:53:10.886Z,29.90
2018-06-12T04:55:39.474Z,27.63
2018-06-12T04:58:08.418Z,30.63
2018-06-12T05:00:37.378Z,31.77
2018-06-12T05:03:06.329Z,30.40
2018-06-12T05:05:35.280Z,29.50
2018-06-12T05:08:03.998Z,29.07
2018-06-12T05:10:32.842Z,28.40
2018-06-12T05:13:01.797Z,25.53
2018-06-12T05:15:30.501Z,26.43
2018-06-12T05:17:59.302Z,27.73
2018-06-12T05:20:28.254Z,30.00
2018-06-12T05:22:57.230Z,26.00
2018-06-12T05:25:26.156Z,27.40
2018-06-12T05:27:55.153Z,24.40
2018-06-12T05:30:23.994Z,26.10
2018-06-12T05:32:52.707Z,23.07
2018-06-12T05:35:21.385Z,22.40
2018-06-12T05:37:50.206Z,23.00
2018-06-12T05:40:18.938Z,23.00
2018-06-12T05:42:47.514Z,21.23
2018-06-12T05:45:16.346Z,21.27
2018-06-12T05:47:45.310Z,21.57
2018-06-12T05:50:14.019Z,23.10
2018-06-12T05:52:42.852Z,20.93
2018-06-12T05:55:11.866Z,21.87
2018-06-12T05:57:40.806Z,20.93
2018-06-12T06:00:09.771Z,19.30
2018-06-12T06:02:38.489Z,20.20
2018-06-12T06:05:07.081Z,18.57
2018-06-12T06:07:35.686Z,19.40
2018-06-12T06:10:04.530Z,19.57
2018-06-12T06:12:33.108Z,19.30
2018-06-12T06:15:01.955Z,18.90
2018-06-12T06:17:30.634Z,18.77
2018-06-12T06:19:59.197Z,19.53
2018-06-12T06:22:28.084Z,20.67
2018-06-12T06:24:56.929Z,18.07
2018-06-12T06:27:25.618Z,20.10
2018-06-12T06:29:54.422Z,18.57
2018-06-12T06:32:23.358Z,19.50
2018-06-12T06:34:52.076Z,18.93
2018-06-12T06:37:20.914Z,18.33
2018-06-12T06:39:49.618Z,19.27
2018-06-12T06:42:18.206Z,19.03
2018-06-12T06:44:47.014Z,18.63
2018-06-12T06:47:15.954Z,16.60
2018-06-12T06:49:44.653Z,17.50
2018-06-12T06:52:13.238Z,17.17
2018-06-12T06:54:42.178Z,17.43
2018-06-12T06:57:10.914Z,17.03
2018-06-12T06:59:39.475Z,16.27
2018-06-12T07:02:08.331Z,14.97
2018-06-12T07:04:37.074Z,16.30
2018-06-12T07:07:05.631Z,15.03
2018-06-12T07:09:34.409Z,14.60
2018-06-12T07:12:03.114Z,14.53
2018-06-12T07:14:31.698Z,13.37
2018-06-12T07:17:00.270Z,14.07
2018-06-12T07:19:29.074Z,14.20
2018-06-12T07:21:57.775Z,12.97
2018-06-12T07:24:26.329Z,13.67
2018-06-12T07:26:55.130Z,13.63
2018-06-12T07:29:24.058Z,13.70
2018-06-12T07:31:52.969Z,12.07
2018-06-12T07:34:21.910Z,13.37
2018-06-12T07:36:50.678Z,10.87
2018-06-12T07:39:19.278Z,11.10
2018-06-12T07:41:48.091Z,11.60
2018-06-12T07:44:16.798Z,11.33
2018-06-12T07:46:45.353Z,10.93
2018-06-12T07:49:14.174Z,11.30
2018-06-12T07:51:42.882Z,9.93
2018-06-12T07:54:11.450Z,9.70
2018-06-12T07:56:40.272Z,11.07
2018-06-12T07:59:09.190Z,10.27
2018-06-12T08:01:37.869Z,9.53
2018-06-12T08:04:06.674Z,11.63
2018-06-12T08:06:35.602Z,9.93
2018-06-12T08:09:05.786Z,10.33
2018-06-12T08:11:34.425Z,9.60
2018-06-12T08:14:03.418Z,10.70
2018-06-12T08:16:32.118Z,10.00
2018-06-12T08:19:00.674Z,8.87
2018-06-12T08:21:29.500Z,9.37
2018-06-12T08:23:58.487Z,10.50
2018-06-12T08:58:53.703Z,6.63
2018-06-12T09:01:22.714Z,8.37
2018-06-12T09:03:51.613Z,7.03
2018-06-12T09:06:20.237Z,8.33
2018-06-12T09:08:49.082Z,7.97
2018-06-12T09:11:18.066Z,8.10
2018-06-12T09:14:46.870Z,6.83
2018-06-12T09:17:15.730Z,6.90
2018-06-12T09:19:44.542Z,6.90
2018-06-12T09:22:13.522Z,6.90
2018-06-12T09:24:42.509Z,6.00
2018-06-12T09:27:11.614Z,6.93
2018-06-12T09:29:40.392Z,7.30
2018-06-12T09:32:09.347Z,6.97
2018-06-12T09:34:38.462Z,7.03
2018-06-12T09:37:07.562Z,6.70
2018-06-12T09:39:36.657Z,6.13
